Time;durP1;ratioP1;P1;durP2;ratioP2;P2;SDS_P1;SDS_P2;PMS_P1;PMS_P2;Temp;Humidity;BMP_temperature;BMP_pressure;BME280_temperature;BME280_humidity;BME280_pressure;Samples;Min_cycle;Max_cycle;Signal;HPM_P1;HPM_P2
2022/02/02 00:00:03;;;;;;;17.08;2.50;;;;;;;5.68;100.00;99597.09;5225805;28;20032;-77
2022/02/02 00:02:58;;;;;;;12.35;2.13;;;;;;;5.76;100.00;99596.84;5224697;28;20055;-76
2022/02/02 00:05:34;;;;;;;14.45;2.42;;;;;;;5.72;100.00;99603.88;5213593;28;20590;-77
2022/02/02 00:08:10;;;;;;;20.58;2.67;;;;;;;5.82;100.00;99607.06;5214915;28;20100;-76
2022/02/02 00:18:48;;;;;;;23.92;2.70;;;;;;;6.12;100.00;99593.09;5223253;28;20033;-76
2022/02/02 00:21:41;;;;;;;16.40;2.72;;;;;;;6.20;100.00;99591.06;5219962;28;20044;-77
2022/02/02 00:26:58;;;;;;;17.88;2.78;;;;;;;6.26;100.00;99606.44;5230105;28;20040;-77
2022/02/02 00:29:35;;;;;;;17.13;2.63;;;;;;;6.25;100.00;99602.16;5229966;28;20105;-77
2022/02/02 00:34:59;;;;;;;20.25;3.13;;;;;;;6.22;100.00;99599.69;5192331;28;20037;-76
2022/02/02 00:37:29;;;;;;;16.75;2.30;;;;;;;6.26;100.00;99614.22;5222678;28;20084;-77
2022/02/02 00:40:00;;;;;;;21.00;2.85;;;;;;;6.31;100.00;99615.78;5229962;28;20168;-76
2022/02/02 00:42:30;;;;;;;18.92;3.00;;;;;;;6.29;100.00;99627.94;5229859;28;20033;-77
2022/02/02 00:45:01;;;;;;;21.02;2.67;;;;;;;6.32;100.00;99634.78;5228994;28;20039;-77
2022/02/02 00:47:37;;;;;;;19.85;3.25;;;;;;;6.38;100.00;99624.19;5212464;28;20143;-77
2022/02/02 00:50:08;;;;;;;19.08;2.28;;;;;;;6.40;100.00;99622.41;5229657;28;20105;-76
2022/02/02 00:52:38;;;;;;;19.52;3.15;;;;;;;6.41;100.00;99626.69;5220240;28;20112;-77
2022/02/02 00:55:09;;;;;;;23.67;3.38;;;;;;;6.41;100.00;99631.88;5229699;28;20033;-76
2022/02/02 00:57:39;;;;;;;19.58;3.10;;;;;;;6.43;100.00;99643.88;5228959;28;20024;-77
2022/02/02 01:00:10;;;;;;;17.75;2.85;;;;;;;6.40;100.00;99635.38;5229199;28;20066;-76
2022/02/02 01:02:40;;;;;;;23.00;3.47;;;;;;;6.39;100.00;99633.69;5227999;28;20429;-75
2022/02/02 01:05:11;;;;;;;20.60;3.03;;;;;;;6.39;100.00;99644.06;5216082;28;20025;-76
2022/02/02 01:10:22;;;;;;;24.67;3.03;;;;;;;6.38;99.80;99650.97;5206765;28;20040;-76
2022/02/02 01:20:52;;;;;;;12.90;2.13;;;;;;;6.27;98.67;99673.00;5224862;28;20032;-75
2022/02/02 01:28:44;;;;;;;13.10;1.92;;;;;;;6.01;99.90;99673.84;5221538;28;20032;-77
2022/02/02 01:31:16;;;;;;;16.77;1.85;;;;;;;5.87;99.46;99685.50;5228188;28;20395;-77
2022/02/02 01:33:47;;;;;;;11.38;1.52;;;;;;;5.82;100.00;99674.44;5227164;28;20561;-77
2022/02/02 01:36:18;;;;;;;12.82;1.70;;;;;;;5.77;100.00;99684.09;5215707;28;20093;-76
2022/02/02 01:38:51;;;;;;;9.68;1.42;;;;;;;5.74;100.00;99691.97;5224181;28;20331;-77
2022/02/02 01:41:27;;;;;;;7.55;1.02;;;;;;;5.72;100.00;99702.38;5228012;28;20029;-76
2022/02/02 01:44:06;;;;;;;10.25;1.38;;;;;;;5.68;100.00;99697.31;5228485;28;20044;-76
2022/02/02 01:46:37;;;;;;;8.70;1.30;;;;;;;5.65;100.00;99712.97;5227928;28;20066;-75
2022/02/02 01:57:47;;;;;;;11.85;2.22;;;;;;;5.79;100.00;99710.84;5221667;28;20036;-76
2022/02/02 02:00:15;;;;;;;9.20;1.27;;;;;;;5.76;100.00;99697.94;5221336;28;20213;-77
2022/02/02 02:02:45;;;;;;;10.02;1.52;;;;;;;5.78;99.69;99702.19;5227469;28;20025;-75
2022/02/02 02:05:15;;;;;;;10.45;1.50;;;;;;;5.78;100.00;99706.53;5219708;28;20038;-76
2022/02/02 02:07:47;;;;;;;9.07;1.35;;;;;;;5.73;100.00;99703.22;5218658;28;20120;-77
2022/02/02 02:10:19;;;;;;;9.52;1.40;;;;;;;5.73;100.00;99717.03;5225997;28;20057;-77
2022/02/02 02:12:56;;;;;;;10.15;1.77;;;;;;;5.75;100.00;99693.66;5220282;28;20028;-76
2022/02/02 02:15:30;;;;;;;7.32;1.60;;;;;;;5.74;100.00;99700.56;5227056;28;20033;-76
2022/02/02 02:18:01;;;;;;;13.52;1.65;;;;;;;5.66;100.00;99702.56;5225614;28;20243;-77
2022/02/02 02:20:32;;;;;;;7.53;1.40;;;;;;;5.72;100.00;99696.34;5224097;28;20426;-75
2022/02/02 02:23:03;;;;;;;7.18;1.48;;;;;;;5.69;100.00;99714.56;5217139;28;20123;-75
2022/02/02 02:25:38;;;;;;;15.63;2.10;;;;;;;5.72;100.00;99707.53;5221422;28;20395;-76
2022/02/02 02:31:02;;;;;;;12.35;1.27;;;;;;;5.64;100.00;99716.44;5226877;28;20043;-76
2022/02/02 02:33:58;;;;;;;8.95;1.30;;;;;;;5.55;100.00;99725.34;5226347;28;20095;-76
2022/02/02 02:55:58;;;;;;;13.07;1.73;;;;;;;5.48;100.00;99723.84;5218862;28;20040;-77
2022/02/02 04:05:32;;;;;;;25.25;3.13;;;;;;;5.77;100.00;99783.41;5208054;28;20549;-76
2022/02/02 04:08:18;;;;;;;15.15;2.25;;;;;;;5.77;100.00;99788.59;5206264;28;20598;-77
2022/02/02 04:10:49;;;;;;;10.30;1.67;;;;;;;5.79;100.00;99783.41;5204437;28;20548;-77
2022/02/02 04:55:23;;;;;;;13.90;1.80;;;;;;;5.59;100.00;99834.94;5205811;28;20031;-77
2022/02/02 05:06:27;;;;;;;14.43;1.98;;;;;;;5.39;100.00;99837.22;5207052;28;20065;-76
2022/02/02 05:09:19;;;;;;;11.32;2.00;;;;;;;5.35;100.00;99833.00;5203769;28;20029;-76
2022/02/02 05:17:40;;;;;;;18.15;2.70;;;;;;;5.24;100.00;99832.44;5211902;28;20041;-77
2022/02/02 05:20:45;;;;;;;15.40;2.20;;;;;;;5.24;100.00;99836.75;5210124;28;20048;-77
2022/02/02 05:43:08;;;;;;;17.90;2.40;;;;;;;5.23;100.00;99874.78;5209179;28;20064;-77
2022/02/02 05:53:27;;;;;;;18.65;2.47;;;;;;;5.18;100.00;99896.50;5212313;28;20029;-77
2022/02/02 05:56:00;;;;;;;19.38;2.47;;;;;;;5.24;100.00;99897.19;5210830;28;20429;-78
2022/02/02 05:58:34;;;;;;;23.15;2.38;;;;;;;5.23;100.00;99898.09;5211987;28;20085;-77
2022/02/02 06:01:07;;;;;;;20.58;2.67;;;;;;;5.26;100.00;99908.38;5208844;28;20033;-78
2022/02/02 06:03:53;;;;;;;18.13;2.70;;;;;;;5.35;100.00;99934.03;5208851;28;20021;-77
2022/02/02 06:06:24;;;;;;;24.90;3.17;;;;;;;5.34;100.00;99932.31;5209432;28;20041;-77
2022/02/02 06:08:55;;;;;;;15.85;2.75;;;;;;;5.34;100.00;99936.66;5210242;28;20032;-77
2022/02/02 06:11:26;;;;;;;26.55;3.25;;;;;;;5.37;100.00;99923.63;5211208;28;20033;-76
2022/02/02 06:13:58;;;;;;;16.60;2.67;;;;;;;5.43;100.00;99938.13;5211287;28;20108;-77
2022/02/02 06:16:29;;;;;;;18.23;2.92;;;;;;;5.45;100.00;99954.50;5211109;28;20033;-78
2022/02/02 06:19:01;;;;;;;19.23;2.90;;;;;;;5.49;100.00;99943.16;5209811;28;20531;-76
2022/02/02 06:21:36;;;;;;;19.33;2.58;;;;;;;5.50;100.00;99949.19;5209479;28;20029;-77
2022/02/02 06:24:12;;;;;;;21.20;3.20;;;;;;;5.47;100.00;99938.91;5223383;28;20023;-77
2022/02/02 06:26:46;;;;;;;23.48;3.20;;;;;;;5.46;100.00;99934.63;5205190;28;20128;-77
2022/02/02 06:29:17;;;;;;;21.73;2.58;;;;;;;5.53;100.00;99959.47;5210609;28;20083;-77
2022/02/02 06:31:48;;;;;;;14.02;2.53;;;;;;;5.55;100.00;99963.72;5209201;28;20033;-77
2022/02/02 06:34:22;;;;;;;22.08;3.08;;;;;;;5.58;100.00;99963.66;5216645;28;20079;-76
2022/02/02 06:36:53;;;;;;;23.13;3.33;;;;;;;5.62;100.00;99956.66;5220342;28;20043;-76
2022/02/02 06:39:26;;;;;;;27.35;3.17;;;;;;;5.61;100.00;99978.28;5221510;28;20029;-76
2022/02/02 06:41:58;;;;;;;14.23;2.42;;;;;;;5.62;100.00;99969.63;5219375;28;20426;-75
2022/02/02 06:44:29;;;;;;;21.35;3.00;;;;;;;5.66;100.00;99976.41;5220738;28;20514;-76
2022/02/02 06:47:00;;;;;;;24.27;2.72;;;;;;;5.58;100.00;99986.13;5221590;28;20043;-77
2022/02/02 06:49:31;;;;;;;11.45;1.80;;;;;;;5.63;100.00;99995.50;5220785;28;20029;-76
2022/02/02 06:52:11;;;;;;;22.88;3.35;;;;;;;5.66;100.00;99994.56;5218604;28;20043;-75
2022/02/02 06:54:53;;;;;;;22.10;2.97;;;;;;;5.55;100.00;100006.97;5208699;28;20105;-76
2022/02/02 06:57:44;;;;;;;27.17;3.70;;;;;;;5.56;100.00;100006.91;5219528;28;20047;-77
2022/02/02 07:00:56;;;;;;;19.77;2.90;;;;;;;5.51;100.00;99993.22;5214354;28;20040;-77
2022/02/02 07:03:48;;;;;;;25.58;3.20;;;;;;;5.49;100.00;100017.44;5207748;28;20041;-78
2022/02/02 07:06:41;;;;;;;22.73;3.45;;;;;;;5.45;100.00;100008.06;5209028;28;20034;-78
2022/02/02 07:17:39;;;;;;;20.23;3.13;;;;;;;5.54;100.00;100049.31;5189480;28;20045;-77
2022/02/02 07:20:29;;;;;;;21.58;2.80;;;;;;;5.52;100.00;100043.28;5209794;28;20052;-77
2022/02/02 07:33:23;;;;;;;16.30;2.58;;;;;;;5.56;100.00;100074.28;5209064;28;20461;-77
2022/02/02 07:38:59;;;;;;;25.25;3.30;;;;;;;5.51;100.00;100085.63;5211749;28;20055;-77
2022/02/02 07:41:38;;;;;;;20.05;2.25;;;;;;;5.49;100.00;100088.28;5220159;28;20110;-78
2022/02/02 07:44:22;;;;;;;23.00;2.92;;;;;;;5.47;100.00;100108.19;5213931;28;20031;-76
2022/02/02 07:46:55;;;;;;;17.02;2.55;;;;;;;5.43;100.00;100110.88;5217723;28;20108;-77
2022/02/02 07:49:33;;;;;;;18.55;2.70;;;;;;;5.45;100.00;100115.16;5211448;28;20884;-78
2022/02/02 07:52:08;;;;;;;14.40;2.55;;;;;;;5.49;100.00;100118.50;5207020;28;20037;-78
2022/02/02 07:54:41;;;;;;;17.08;3.50;;;;;;;5.47;100.00;100128.06;5199439;28;20114;-78
2022/02/02 07:57:16;;;;;;;19.45;2.90;;;;;;;5.52;100.00;100137.44;5210899;28;20033;-78
2022/02/02 08:02:37;;;;;;;23.00;3.25;;;;;;;5.60;100.00;100147.63;5222103;28;20048;-76
2022/02/02 08:05:10;;;;;;;18.70;2.60;;;;;;;5.60;100.00;100137.25;5213834;28;20025;-77
2022/02/02 08:10:25;;;;;;;19.27;2.90;;;;;;;5.72;100.00;100127.47;5214992;28;20048;-76
2022/02/02 08:13:00;;;;;;;18.63;2.65;;;;;;;5.71;100.00;100132.69;5216015;28;20029;-76
2022/02/02 08:15:33;;;;;;;14.00;2.30;;;;;;;5.69;100.00;100144.81;5213370;28;20114;-77
2022/02/02 08:18:03;;;;;;;16.80;2.15;;;;;;;5.67;100.00;100136.22;5212780;28;20140;-75
2022/02/02 08:20:34;;;;;;;18.10;3.13;;;;;;;5.66;100.00;100137.97;5214606;28;20088;-77
2022/02/02 08:23:04;;;;;;;10.45;2.15;;;;;;;5.57;100.00;100148.53;5210632;28;20030;-78
2022/02/02 08:25:35;;;;;;;15.40;2.22;;;;;;;5.59;100.00;100135.56;5213850;28;20025;-76
2022/02/02 08:28:05;;;;;;;12.30;2.10;;;;;;;5.58;100.00;100144.22;5213358;28;20025;-76
2022/02/02 08:30:36;;;;;;;17.35;2.17;;;;;;;5.59;100.00;100146.75;5214667;28;20033;-76
2022/02/02 08:33:12;;;;;;;15.23;2.25;;;;;;;5.66;100.00;100157.84;5214021;28;20045;-76
2022/02/02 08:35:48;;;;;;;16.20;2.10;;;;;;;5.74;100.00;100166.31;5213104;28;20028;-77
2022/02/02 08:41:11;;;;;;;11.98;2.03;;;;;;;6.52;97.18;100165.28;5212864;28;20056;-78
2022/02/02 08:43:53;;;;;;;14.48;2.17;;;;;;;7.51;90.94;100172.88;5210210;28;20029;-76
2022/02/02 08:46:32;;;;;;;13.02;1.90;;;;;;;8.31;87.94;100189.41;5219835;28;20029;-76
2022/02/02 08:49:06;;;;;;;13.85;1.55;;;;;;;8.62;84.78;100190.97;5220368;28;20498;-76
2022/02/02 08:51:43;;;;;;;10.45;1.95;;;;;;;8.56;85.30;100205.94;5221225;28;20107;-75
2022/02/02 08:59:26;;;;;;;19.50;2.28;;;;;;;7.01;92.66;100222.81;5219769;28;20051;-76
2022/02/02 09:01:58;;;;;;;;;;;;;;;7.02;92.57;100229.72;5220178;28;20048;-76
2022/02/02 09:07:17;;;;;;;7.68;1.17;;;;;;;6.54;93.71;100248.28;5218613;28;20099;-76
2022/02/02 09:10:06;;;;;;;17.80;2.70;;;;;;;6.47;93.16;100245.00;5219070;28;20025;-77
2022/02/02 09:22:09;;;;;;;11.80;2.28;;;;;;;6.43;96.07;100271.06;5175932;28;20069;-76
2022/02/02 09:24:25;;;;;;;15.05;1.55;;;;;;;6.31;94.36;100255.78;5211720;28;20527;-77
2022/02/02 09:35:23;;;;;;;12.48;2.10;;;;;;;6.31;95.94;100287.78;5218153;28;20033;-76
2022/02/02 09:37:54;;;;;;;8.88;2.05;;;;;;;6.26;95.50;100306.94;5218887;28;20037;-76
2022/02/02 09:43:19;;;;;;;19.17;3.67;;;;;;;6.40;95.16;100305.72;5192643;28;20538;-75
2022/02/02 09:45:57;;;;;;;14.45;2.85;;;;;;;6.45;94.17;100297.84;5224039;22;20055;-77
2022/02/02 09:48:36;;;;;;;15.32;2.05;;;;;;;6.56;93.80;100306.22;5209659;28;20034;-76
2022/02/02 09:51:11;;;;;;;10.57;1.98;;;;;;;6.49;93.83;100308.13;5209514;28;20140;-77
2022/02/02 09:53:52;;;;;;;12.50;2.13;;;;;;;6.48;94.46;100309.00;5210317;28;20087;-78
2022/02/02 10:15:50;;;;;;;11.25;1.77;;;;;;;6.58;93.25;100343.38;5194609;28;20075;-76
2022/02/02 10:18:29;;;;;;;15.38;1.95;;;;;;;6.65;93.39;100351.00;5199343;28;20029;-76
2022/02/02 10:21:00;;;;;;;7.50;1.35;;;;;;;6.75;92.46;100344.69;5195644;28;20049;-76
2022/02/02 10:23:33;;;;;;;8.38;1.30;;;;;;;6.73;91.65;100340.44;5196037;28;20064;-76
2022/02/02 10:26:19;;;;;;;16.40;2.03;;;;;;;6.98;92.28;100364.91;5195461;28;20657;-76
2022/02/02 10:28:50;;;;;;;8.10;1.33;;;;;;;6.82;90.71;100361.84;5193471;28;20130;-77
2022/02/02 10:31:21;;;;;;;11.95;1.60;;;;;;;7.06;90.04;100365.56;5187083;28;20125;-76
2022/02/02 10:34:09;;;;;;;11.52;1.65;;;;;;;7.28;89.91;100369.34;5196315;28;20117;-76
2022/02/02 10:36:41;;;;;;;10.70;1.50;;;;;;;7.21;90.33;100373.84;5184387;28;20109;-76
2022/02/02 10:39:17;;;;;;;9.25;1.50;;;;;;;7.22;90.02;100371.19;5191087;28;20022;-78
2022/02/02 10:41:56;;;;;;;18.65;2.35;;;;;;;7.35;89.71;100382.97;5188147;28;20028;-76
2022/02/02 10:44:40;;;;;;;13.07;1.65;;;;;;;7.30;89.10;100397.84;5197694;28;20034;-77
2022/02/02 10:52:43;;;;;;;13.75;2.10;;;;;;;6.47;99.14;100415.44;5194804;28;20046;-77
2022/02/02 11:06:46;;;;;;;16.13;2.33;;;;;;;6.40;96.63;100434.66;5195821;28;20044;-76
2022/02/02 11:09:20;;;;;;;12.55;1.73;;;;;;;6.47;96.31;100447.47;5196118;28;20030;-76
2022/02/02 11:11:53;;;;;;;11.80;1.73;;;;;;;6.47;95.38;100446.59;5188594;28;20037;-76
2022/02/02 11:14:41;;;;;;;7.25;1.35;;;;;;;6.55;95.53;100450.72;5190221;28;20080;-77
2022/02/02 11:17:33;;;;;;;6.15;1.30;;;;;;;6.59;94.40;100478.34;5190550;28;20056;-77
2022/02/02 11:20:07;;;;;;;8.63;1.98;;;;;;;6.48;93.70;100469.06;5195136;28;20033;-76
2022/02/02 11:22:49;;;;;;;9.30;1.65;;;;;;;6.56;94.91;100472.38;5194226;28;20157;-78
2022/02/02 11:25:22;;;;;;;14.65;1.80;;;;;;;6.66;95.18;100473.88;5196850;28;20045;-76
2022/02/02 11:27:57;;;;;;;12.05;1.63;;;;;;;6.72;94.64;100476.31;5194424;28;20030;-76
2022/02/02 11:30:27;;;;;;;27.83;7.38;;;;;;;6.84;92.98;100476.06;5184188;28;20030;-77
2022/02/02 11:33:22;;;;;;;19.70;6.10;;;;;;;6.97;92.26;100480.94;5196009;28;20025;-77
2022/02/02 11:35:57;;;;;;;7.22;1.25;;;;;;;7.05;89.84;100480.75;5183812;28;20283;-76
2022/02/02 11:38:28;;;;;;;15.77;1.73;;;;;;;7.19;89.00;100486.50;5195745;28;20153;-76
2022/02/02 11:41:33;;;;;;;12.50;1.98;;;;;;;7.15;87.04;100487.47;5193810;28;20022;-74
2022/02/02 11:44:05;;;;;;;6.90;1.33;;;;;;;7.09;86.16;100493.66;5192376;28;20037;-76
2022/02/02 11:50:04;;;;;;;8.85;1.10;;;;;;;6.99;86.75;100493.91;5198557;28;20033;-76
2022/02/02 11:52:43;;;;;;;13.02;2.55;;;;;;;6.89;87.67;100505.38;5196416;28;20144;-76
2022/02/02 11:55:17;;;;;;;17.00;5.75;;;;;;;6.86;88.60;100502.84;5189971;28;20103;-76
2022/02/02 11:58:12;;;;;;;8.38;1.80;;;;;;;6.86;87.96;100484.66;5194434;28;20037;-76
2022/02/02 12:03:43;;;;;;;11.68;1.60;;;;;;;7.16;88.03;100499.56;5194836;28;20119;-76
2022/02/02 12:09:48;;;;;;;10.02;1.60;;;;;;;7.06;87.32;100491.13;5190613;28;20041;-75
2022/02/02 12:47:05;;;;;;;8.00;1.05;;;;;;;7.41;83.18;100518.03;5189025;28;20041;-75
2022/02/02 12:57:55;;;;;;;4.97;0.88;;;;;;;6.88;86.63;100547.81;5190778;28;20040;-75
2022/02/02 13:03:12;;;;;;;8.45;1.67;;;;;;;6.79;89.62;100548.03;5188636;28;20115;-75
2022/02/02 13:05:45;;;;;;;6.45;1.10;;;;;;;6.82;91.76;100541.03;5190100;28;20042;-76
2022/02/02 13:08:15;;;;;;;9.55;1.40;;;;;;;6.91;91.30;100542.59;5188977;28;20028;-76
2022/02/02 13:10:46;;;;;;;6.85;1.05;;;;;;;6.85;91.22;100543.56;5194890;28;20026;-76
2022/02/02 13:13:24;;;;;;;13.70;1.60;;;;;;;6.92;92.49;100544.31;5195218;28;20482;-75
2022/02/02 13:16:19;;;;;;;13.15;1.65;;;;;;;6.96;91.87;100548.53;5187394;28;20030;-76
2022/02/02 13:18:54;;;;;;;6.18;1.17;;;;;;;7.05;90.67;100545.72;5187412;28;20092;-76
2022/02/02 13:21:30;;;;;;;5.57;1.27;;;;;;;7.06;90.32;100547.44;5195494;28;20030;-76
2022/02/02 13:24:19;;;;;;;10.27;1.38;;;;;;;7.16;90.78;100548.94;5192702;28;20030;-76
2022/02/02 13:27:04;;;;;;;3.38;0.80;;;;;;;7.39;90.00;100558.78;5191909;28;20064;-76
2022/02/02 13:30:09;;;;;;;10.15;1.40;;;;;;;7.17;94.19;100582.72;5193802;28;20025;-76
2022/02/02 13:32:44;;;;;;;4.20;0.90;;;;;;;6.17;100.00;100588.19;5192169;28;20041;-76
2022/02/02 13:35:25;;;;;;;9.57;1.25;;;;;;;5.97;100.00;100592.88;5190336;28;20026;-76
2022/02/02 13:48:56;;;;;;;9.52;1.13;;;;;;;6.35;100.00;100587.84;5196632;28;19979;-77
2022/02/02 13:52:18;;;;;;;8.65;1.55;;;;;;;6.53;95.78;100597.00;5198937;28;20044;-77
2022/02/02 13:54:54;;;;;;;10.60;1.13;;;;;;;6.71;92.72;100617.44;5194837;28;20121;-78
2022/02/02 13:57:55;;;;;;;11.18;1.00;;;;;;;6.80;91.58;100622.47;5188052;28;20033;-78
2022/02/02 14:00:34;;;;;;;5.93;1.05;;;;;;;6.51;91.96;100630.81;5194072;28;20550;-77
2022/02/02 14:06:14;;;;;;;9.95;1.13;;;;;;;5.77;100.00;100670.06;5190356;28;20045;-77
2022/02/02 14:09:04;;;;;;;7.93;1.00;;;;;;;5.80;100.00;100670.06;5192501;28;20030;-76
2022/02/02 14:25:56;;;;;;;6.65;1.00;;;;;;;5.54;100.00;100700.63;5193294;28;20132;-77
2022/02/02 14:31:17;;;;;;;5.57;0.85;;;;;;;5.49;100.00;100706.75;5193544;28;20230;-77
2022/02/02 14:33:49;;;;;;;7.90;1.40;;;;;;;5.47;100.00;100711.09;5199287;28;20108;-78
2022/02/02 14:36:24;;;;;;;7.03;1.20;;;;;;;5.58;100.00;100710.09;5191635;28;20037;-76
2022/02/02 14:41:52;;;;;;;6.97;1.05;;;;;;;5.72;98.52;100718.53;5192160;28;20115;-78
2022/02/02 14:44:28;;;;;;;8.75;1.00;;;;;;;5.80;98.73;100719.34;5198129;28;20049;-77
2022/02/02 14:47:05;;;;;;;6.32;0.90;;;;;;;5.89;97.36;100732.16;5199043;28;20067;-76
2022/02/02 15:09:11;;;;;;;8.38;1.40;;;;;;;5.68;94.36;100783.41;5191328;28;20574;-76
2022/02/02 15:28:40;;;;;;;8.73;1.33;;;;;;;5.45;96.87;100811.34;5177351;28;20041;-76
2022/02/02 15:31:10;;;;;;;8.63;1.40;;;;;;;5.46;95.82;100811.34;5188410;28;20503;-77
2022/02/02 15:33:42;;;;;;;6.55;1.40;;;;;;;5.47;96.48;100819.97;5195932;28;20087;-76
2022/02/02 15:39:20;;;;;;;8.60;1.30;;;;;;;5.34;96.30;100820.97;5113341;29;20040;-76
2022/02/02 15:56:04;;;;;;;12.32;1.80;;;;;;;5.13;97.24;100849.69;5198562;28;20037;-80
2022/02/02 15:58:19;;;;;;;7.18;1.70;;;;;;;5.09;97.40;100871.31;5178211;28;20121;-80
2022/02/02 16:06:18;;;;;;;9.07;2.00;;;;;;;5.00;96.50;100879.13;5181029;28;20677;-82
2022/02/02 16:08:57;;;;;;;11.90;1.85;;;;;;;5.01;94.85;100886.03;5178885;28;20183;-80
2022/02/02 16:11:30;;;;;;;7.38;1.25;;;;;;;5.06;93.19;100886.88;5180644;28;20033;-77
2022/02/02 16:14:04;;;;;;;10.65;1.58;;;;;;;5.05;93.02;100885.16;5180867;28;20120;-80
2022/02/02 16:16:55;;;;;;;10.23;2.00;;;;;;;5.05;92.66;100895.53;5179359;28;20022;-79
2022/02/02 16:19:32;;;;;;;9.82;1.33;;;;;;;5.09;91.87;100899.78;5179647;28;20076;-80
2022/02/02 16:25:12;;;;;;;6.70;1.13;;;;;;;4.95;92.65;100906.81;5178658;28;20605;-80
2022/02/02 16:36:24;;;;;;;9.40;1.45;;;;;;;4.94;93.40;100937.91;5180181;28;20038;-81
2022/02/02 16:39:07;;;;;;;8.70;1.60;;;;;;;4.92;93.22;100944.81;5181198;28;20030;-81
2022/02/02 16:44:27;;;;;;;13.13;3.28;;;;;;;4.94;93.31;100946.53;5181265;28;20049;-81
2022/02/02 16:46:57;;;;;;;14.30;3.35;;;;;;;4.91;92.44;100954.31;5179300;28;20269;-80
2022/02/02 16:49:28;;;;;;;13.88;3.40;;;;;;;4.91;91.87;100959.50;5179307;28;20030;-78
2022/02/02 16:51:58;;;;;;;17.70;3.15;;;;;;;4.92;92.35;100952.56;5178553;28;20472;-79
2022/02/02 16:54:34;;;;;;;16.27;3.97;;;;;;;4.88;93.10;100951.75;5177985;28;20030;-79
2022/02/02 16:57:26;;;;;;;10.57;3.00;;;;;;;4.83;92.60;100956.09;5179030;28;20030;-80
2022/02/02 17:33:06;;;;;;;7.65;1.45;;;;;;;4.57;94.93;100994.22;5181314;28;20036;-78
2022/02/02 18:19:45;;;;;;;11.45;1.58;;;;;;;4.41;100.00;101056.38;5178879;28;20052;-80
2022/02/02 18:22:17;;;;;;;11.00;2.20;;;;;;;4.40;100.00;101055.53;5180023;28;20115;-78
2022/02/02 18:25:07;;;;;;;10.40;1.95;;;;;;;4.31;100.00;101060.72;5181533;28;20300;-80
2022/02/02 18:27:55;;;;;;;13.85;1.88;;;;;;;4.26;100.00;101067.63;5177930;28;20034;-78
2022/02/02 18:43:01;;;;;;;11.60;2.50;;;;;;;4.22;100.00;101086.63;5180863;28;20104;-79
2022/02/02 18:50:26;;;;;;;13.88;1.73;;;;;;;4.18;100.00;101095.25;5180586;28;20033;-79
2022/02/02 18:53:39;;;;;;;10.85;2.22;;;;;;;4.03;100.00;101103.03;5178898;28;20471;-80
2022/02/02 18:56:02;;;;;;;11.77;2.55;;;;;;;4.14;100.00;101108.19;5179831;28;20069;-79
2022/02/02 18:58:43;;;;;;;13.27;2.05;;;;;;;4.11;100.00;101109.03;5181015;28;20029;-79
2022/02/02 19:01:27;;;;;;;12.35;2.30;;;;;;;4.03;100.00;101121.13;5178927;28;20041;-80
2022/02/02 19:07:03;;;;;;;12.68;2.00;;;;;;;3.83;100.00;101116.81;5180527;28;20045;-79
2022/02/02 19:57:22;;;;;;;18.25;4.78;;;;;;;2.89;100.00;101114.88;5177742;28;20041;-76
2022/02/02 20:11:09;;;;;;;10.82;2.70;;;;;;;2.79;100.00;101126.03;5178528;28;20040;-78
2022/02/02 20:13:39;;;;;;;14.88;3.33;;;;;;;2.76;100.00;101133.78;5177329;28;20036;-77
2022/02/02 20:16:09;;;;;;;12.07;2.75;;;;;;;2.78;100.00;101126.03;5179681;28;20029;-79
2022/02/02 20:18:43;;;;;;;15.10;3.65;;;;;;;2.74;100.00;101129.47;5178995;28;20036;-81
2022/02/02 20:21:17;;;;;;;19.45;4.03;;;;;;;2.76;100.00;101127.75;5179250;28;20029;-80
2022/02/02 20:23:49;;;;;;;15.73;3.70;;;;;;;2.79;100.00;101132.91;5178782;28;20030;-79
2022/02/02 20:26:23;;;;;;;13.38;3.97;;;;;;;2.79;100.00;101126.03;5178614;28;20036;-79
2022/02/02 20:28:53;;;;;;;15.70;4.88;;;;;;;2.75;100.00;101126.91;5180325;28;20476;-78
2022/02/02 20:31:23;;;;;;;14.02;4.63;;;;;;;2.75;100.00;101132.06;5179508;28;20181;-78
2022/02/02 20:33:53;;;;;;;18.77;5.72;;;;;;;2.74;100.00;101124.28;5179664;28;20564;-79
2022/02/02 20:36:24;;;;;;;15.95;5.05;;;;;;;2.71;100.00;101124.28;5179425;28;20033;-79
2022/02/02 20:38:54;;;;;;;18.30;4.50;;;;;;;2.70;100.00;101127.72;5180234;28;20093;-78
2022/02/02 20:41:24;;;;;;;15.90;4.07;;;;;;;2.66;100.00;101131.16;5183652;28;20065;-78
2022/02/02 20:44:03;;;;;;;21.42;4.72;;;;;;;2.65;100.00;101132.84;5182541;28;20025;-79
2022/02/02 21:08:43;;;;;;;7.72;2.13;;;;;;;2.39;100.00;101138.72;5184367;28;20392;-80
2022/02/02 21:11:32;;;;;;;13.45;2.15;;;;;;;2.40;100.00;101136.16;5179585;28;20037;-80
2022/02/02 21:14:03;;;;;;;14.27;2.42;;;;;;;2.32;100.00;101137.81;5181623;28;20054;-79
2022/02/02 21:16:37;;;;;;;7.82;2.00;;;;;;;2.34;100.00;101145.56;5182248;28;20056;-79
2022/02/02 21:19:10;;;;;;;12.87;2.43;;;;;;;2.22;100.00;101153.22;5185881;28;20029;-81
2022/02/02 21:21:51;;;;;;;10.95;2.67;;;;;;;2.20;100.00;101153.19;5183855;28;20285;-78
2022/02/02 21:29:26;;;;;;;10.90;3.10;;;;;;;2.40;100.00;101158.50;5187943;28;20034;-80
2022/02/02 21:31:56;;;;;;;11.63;2.70;;;;;;;2.45;100.00;101180.00;5182371;28;20053;-79
2022/02/02 21:34:27;;;;;;;15.57;3.15;;;;;;;2.39;100.00;101174.81;5181299;28;20113;-79
2022/02/02 21:37:02;;;;;;;11.80;2.72;;;;;;;2.35;100.00;101175.66;5177523;28;20459;-80
2022/02/02 21:39:36;;;;;;;11.82;3.03;;;;;;;2.29;100.00;101180.75;5184827;28;20459;-78
2022/02/02 21:42:13;;;;;;;11.27;2.47;;;;;;;2.18;100.00;101172.94;5199657;28;20029;-78
2022/02/02 21:44:44;;;;;;;7.88;2.30;;;;;;;2.16;100.00;101178.97;5182365;28;20426;-79
2022/02/02 21:47:14;;;;;;;13.20;2.33;;;;;;;2.06;100.00;101174.56;5210031;22;20041;-78
2022/02/02 21:49:45;;;;;;;13.27;2.38;;;;;;;2.02;100.00;101177.97;5205251;28;20029;-78
2022/02/02 21:52:17;;;;;;;8.15;1.95;;;;;;;1.93;100.00;101175.31;5194243;28;20410;-78
2022/02/02 21:54:47;;;;;;;10.52;2.40;;;;;;;1.89;100.00;101183.88;5204595;28;20319;-78
2022/02/02 21:57:18;;;;;;;10.32;2.28;;;;;;;1.81;100.00;101182.97;5204210;28;20397;-78
2022/02/02 21:59:49;;;;;;;13.23;2.45;;;;;;;1.79;100.00;101177.78;5204772;28;20041;-78
2022/02/02 22:02:19;;;;;;;14.50;2.72;;;;;;;1.77;100.00;101183.75;5194079;28;20106;-78
2022/02/02 22:04:49;;;;;;;15.18;2.67;;;;;;;1.68;100.00;101181.09;5192245;28;20112;-78
2022/02/02 22:07:20;;;;;;;13.15;2.42;;;;;;;1.64;100.00;101187.09;5186003;28;20067;-78
2022/02/02 22:09:55;;;;;;;16.33;2.92;;;;;;;1.66;100.00;101185.38;5194084;28;20585;-78
2022/02/02 22:12:27;;;;;;;16.90;2.67;;;;;;;1.67;100.00;101186.22;5204038;28;20068;-78
2022/02/02 22:14:57;;;;;;;8.95;2.50;;;;;;;1.69;100.00;101167.38;5204517;28;20037;-78
2022/02/02 22:17:27;;;;;;;14.23;2.72;;;;;;;1.84;100.00;101180.41;5194025;28;20222;-78
2022/02/02 22:20:02;;;;;;;11.10;2.30;;;;;;;1.74;100.00;101176.00;5203184;28;20037;-78
2022/02/02 22:22:33;;;;;;;15.68;2.90;;;;;;;1.70;100.00;101181.97;5203499;28;20036;-78
2022/02/02 22:25:04;;;;;;;11.05;2.40;;;;;;;1.65;100.00;101173.38;5193822;28;20033;-78
2022/02/02 22:27:34;;;;;;;11.15;2.60;;;;;;;1.54;100.00;101174.94;5203514;28;20067;-77
2022/02/02 22:30:06;;;;;;;12.02;2.65;;;;;;;1.54;100.00;101174.09;5202972;28;20467;-78
2022/02/02 22:32:36;;;;;;;13.98;3.10;;;;;;;1.51;100.00;101172.34;5202870;28;20065;-78
2022/02/02 22:35:07;;;;;;;15.23;2.78;;;;;;;1.40;100.00;101165.38;5202760;28;20061;-78
2022/02/02 22:37:37;;;;;;;13.77;2.47;;;;;;;1.39;100.00;101174.78;5193491;28;20037;-78
2022/02/02 22:40:08;;;;;;;14.60;3.13;;;;;;;1.33;100.00;101174.75;5193995;28;20037;-78
2022/02/02 22:42:39;;;;;;;11.30;2.50;;;;;;;1.28;100.00;101180.69;5189465;28;20688;-78
2022/02/02 22:45:10;;;;;;;10.45;2.70;;;;;;;1.28;100.00;101178.97;5193470;28;20060;-78
2022/02/02 22:47:46;;;;;;;11.18;2.70;;;;;;;1.32;100.00;101172.13;5202191;28;20041;-77
2022/02/02 22:50:20;;;;;;;16.23;3.08;;;;;;;1.28;100.00;101180.69;5202551;28;20030;-77
2022/02/02 22:52:54;;;;;;;13.90;2.85;;;;;;;1.17;100.00;101171.97;5193541;28;20025;-78
2022/02/02 22:55:25;;;;;;;17.02;2.58;;;;;;;1.22;100.00;101175.47;5191747;28;20068;-78